Allentown, New York
Current Conditions -  °F | °C
As of 3:53 AM on Sunday 23 Nov 2014 (Local Time) from KELZ Reporting Station
Overcast Overcast  
Wind Chill:   Ceiling: 2900
Heat Index:   Visibility: 10mi
Dew Point:   Wind: 12mph
Humidity: 66%   Direction: 230°SW
Pressure: 30.04"   Gusts: NA
Location:  42.08°N, 78.06°W
Report Text: KELZ 230853Z AUTO 23010KT 10SM OVC029 07/01 A3004 RMK AO2 RAE04 P0000
Loading
Personal Weather Stations






























Interactive Weather Map New forecast layout! Learn more

10-Day Weather Forecast

Advertisements
Track Severe Weather on mobile